EDT,Max TemperatureF,Mean TemperatureF,Min TemperatureF,Max Dew PointF,MeanDew PointF,Min DewpointF,Max Humidity, Mean Humidity, Min Humidity, Max Sea Level PressureIn, Mean Sea Level PressureIn, Min Sea Level PressureIn, Max VisibilityMiles, Mean VisibilityMiles, Min VisibilityMiles, Max Wind SpeedMPH, Mean Wind SpeedMPH, Max Gust SpeedMPH,PrecipitationIn, CloudCover, Events, WindDirDegrees
2013-7-1,86,80,73,77,72,70,94,84,66,30.03,29.92,29.84,10,10,7,14,8,23,0.00,4,Thunderstorm,187
2013-7-2,86,80,73,75,73,72,100,85,66,30.14,30.07,30.01,10,10,7,18,5,25,0.00,6,Thunderstorm,170
2013-7-3,87,79,71,77,74,70,100,84,66,30.18,30.14,30.10,10,10,4,17,5,23,0.00,3,Thunderstorm,135
2013-7-4,87,81,75,75,73,70,89,76,62,30.21,30.17,30.14,10,10,10,20,9,26,0.00,4,,146
2013-7-5,87,79,71,77,74,72,100,78,62,30.21,30.18,30.15,10,10,7,17,5,24,0.00,4,,132
2013-7-6,87,80,73,77,73,72,100,78,58,30.19,30.16,30.11,10,10,7,18,7,25,0.00,4,,127
2013-7-7,87,80,73,77,73,68,100,75,55,30.19,30.15,30.11,10,10,5,12,5,16,0.00,2,Thunderstorm,140
2013-7-8,87,79,71,77,72,70,100,79,58,30.21,30.17,30.13,10,9,1,12,2,,0.00,1,,145
2013-7-9,87,78,69,77,72,70,100,78,55,30.21,30.16,30.11,10,9,0,14,3,16,0.00,1,Thunderstorm,143
2013-7-10,89,79,69,75,71,70,100,76,52,30.13,30.07,30.00,10,9,2,13,3,16,0.00,2,,169
2013-7-11,89,82,75,75,73,72,89,75,55,30.04,29.97,29.89,10,10,10,15,7,21,0.00,2,Thunderstorm,186
2013-7-12,84,78,73,75,73,72,94,85,70,29.95,29.92,29.90,10,10,7,8,5,,0.00,3,Thunderstorm,197
2013-7-13,86,80,73,75,73,72,100,83,62,30.04,29.98,29.93,10,10,4,13,3,21,0.00,4,Thunderstorm,103
2013-7-14,82,76,69,77,72,70,100,87,74,30.17,30.10,30.02,10,10,2,15,3,17,0.00,4,,106
2013-7-15,87,79,71,77,73,72,100,81,62,30.22,30.18,30.15,10,9,2,20,6,25,0.00,4,Thunderstorm,81
2013-7-16,87,80,73,77,73,72,100,79,62,30.25,30.22,30.19,10,10,1,16,7,21,0.00,3,,71
2013-7-17,89,80,71,77,72,68,100,78,49,30.25,30.20,30.13,10,8,0,10,2,18,0.00,1,,101
2013-7-18,87,78,69,75,71,66,100,78,49,30.17,30.14,30.08,10,9,0,10,2,,0.00,1,,118
2013-7-19,87,79,71,73,72,70,100,85,58,30.14,30.10,30.06,10,10,4,17,2,21,0.00,4,Thunderstorm,192
2013-7-20,87,79,71,75,72,70,100,84,55,30.11,30.08,30.03,10,10,3,23,5,31,0.00,3,Thunderstorm,207
2013-7-21,89,81,73,75,72,70,94,84,55,30.11,30.06,30.02,10,10,5,14,6,16,0.00,2,Thunderstorm,230
2013-7-22,89,82,75,73,72,70,94,79,52,30.09,30.04,30.01,10,10,10,17,8,26,0.00,3,Thunderstorm,236
2013-7-23,91,82,73,75,73,70,94,78,55,30.02,29.96,29.88,10,10,10,16,10,23,0.00,4,,248
2013-7-24,87,80,73,75,72,70,89,76,58,29.90,29.86,29.80,10,10,10,13,7,18,0.00,4,,258
2013-7-25,87,79,71,77,73,70,94,81,62,29.98,29.90,29.82,10,10,5,10,6,,0.00,2,,261
2013-7-26,89,80,71,77,74,70,100,82,59,30.05,30.01,29.96,10,9,2,13,4,16,0.00,2,Thunderstorm,92
2013-7-27,91,82,73,77,74,72,100,84,55,30.05,29.97,29.93,10,8,0,10,2,,0.00,4,Thunderstorm,143
2013-7-28,87,79,71,77,73,70,100,81,58,30.06,29.99,29.94,10,8,0,9,1,,0.00,1,,188
2013-7-29,89,81,73,75,73,70,94,75,55,30.17,30.10,30.03,10,10,10,14,5,17,0.00,1,Thunderstorm,192
2013-7-30,91,81,71,79,74,72,100,82,52,30.19,30.15,30.11,10,10,2,13,2,,0.00,3,Thunderstorm,233
2013-7-31,89,80,71,77,73,72,100,90,59,30.15,30.10,30.05,10,7,0,17,1,28,0.00,3,Thunderstorm,208